sensor_id;sensor_type;location;lat;lon;timestamp;P1;durP1;ratioP1;P2;durP2;ratioP2
74309;SDS011;62722;51.142;17.052;2023-10-31T00:02:25;8.63;;;4.60;;
74309;SDS011;62722;51.142;17.052;2023-10-31T00:04:52;8.38;;;4.78;;
74309;SDS011;62722;51.142;17.052;2023-10-31T00:07:19;7.38;;;4.47;;
74309;SDS011;62722;51.142;17.052;2023-10-31T00:09:46;7.10;;;3.65;;
74309;SDS011;62722;51.142;17.052;2023-10-31T00:12:16;7.13;;;3.88;;
74309;SDS011;62722;51.142;17.052;2023-10-31T00:14:45;6.90;;;4.07;;
74309;SDS011;62722;51.142;17.052;2023-10-31T00:17:13;8.70;;;4.38;;
74309;SDS011;62722;51.142;17.052;2023-10-31T00:19:40;9.15;;;4.72;;
74309;SDS011;62722;51.142;17.052;2023-10-31T00:22:08;10.13;;;4.55;;
74309;SDS011;62722;51.142;17.052;2023-10-31T00:24:35;6.95;;;4.05;;
74309;SDS011;62722;51.142;17.052;2023-10-31T00:27:02;8.18;;;4.10;;
74309;SDS011;62722;51.142;17.052;2023-10-31T00:29:29;8.07;;;4.35;;
74309;SDS011;62722;51.142;17.052;2023-10-31T00:31:58;7.93;;;4.25;;
74309;SDS011;62722;51.142;17.052;2023-10-31T00:34:25;10.07;;;4.50;;
74309;SDS011;62722;51.142;17.052;2023-10-31T00:36:53;6.60;;;3.58;;
74309;SDS011;62722;51.142;17.052;2023-10-31T00:39:20;11.05;;;4.40;;
74309;SDS011;62722;51.142;17.052;2023-10-31T00:41:47;9.18;;;4.45;;
74309;SDS011;62722;51.142;17.052;2023-10-31T00:44:14;8.65;;;4.05;;
74309;SDS011;62722;51.142;17.052;2023-10-31T00:46:42;8.10;;;3.92;;
74309;SDS011;62722;51.142;17.052;2023-10-31T00:49:11;8.35;;;3.85;;
74309;SDS011;62722;51.142;17.052;2023-10-31T00:51:39;10.13;;;4.38;;
74309;SDS011;62722;51.142;17.052;2023-10-31T00:54:06;7.38;;;3.97;;
74309;SDS011;62722;51.142;17.052;2023-10-31T00:56:33;8.10;;;4.03;;
74309;SDS011;62722;51.142;17.052;2023-10-31T00:59:01;8.73;;;4.07;;
74309;SDS011;62722;51.142;17.052;2023-10-31T01:01:28;8.07;;;4.20;;
74309;SDS011;62722;51.142;17.052;2023-10-31T01:03:55;6.90;;;3.55;;
74309;SDS011;62722;51.142;17.052;2023-10-31T01:06:24;6.82;;;3.50;;
74309;SDS011;62722;51.142;17.052;2023-10-31T01:08:51;8.05;;;3.75;;
74309;SDS011;62722;51.142;17.052;2023-10-31T01:11:18;7.25;;;3.75;;
74309;SDS011;62722;51.142;17.052;2023-10-31T01:13:45;6.30;;;3.33;;
74309;SDS011;62722;51.142;17.052;2023-10-31T01:16:12;6.70;;;3.55;;
74309;SDS011;62722;51.142;17.052;2023-10-31T01:18:39;7.32;;;4.25;;
74309;SDS011;62722;51.142;17.052;2023-10-31T01:21:07;7.85;;;3.78;;
74309;SDS011;62722;51.142;17.052;2023-10-31T01:23:36;8.23;;;4.57;;
74309;SDS011;62722;51.142;17.052;2023-10-31T01:26:03;8.38;;;4.50;;
74309;SDS011;62722;51.142;17.052;2023-10-31T01:28:30;6.45;;;3.90;;
74309;SDS011;62722;51.142;17.052;2023-10-31T01:30:58;6.22;;;4.05;;
74309;SDS011;62722;51.142;17.052;2023-10-31T01:33:26;5.45;;;3.72;;
74309;SDS011;62722;51.142;17.052;2023-10-31T01:35:53;6.63;;;3.78;;
74309;SDS011;62722;51.142;17.052;2023-10-31T01:38:21;6.15;;;3.65;;
74309;SDS011;62722;51.142;17.052;2023-10-31T01:40:51;11.13;;;4.53;;
74309;SDS011;62722;51.142;17.052;2023-10-31T01:43:31;10.13;;;4.00;;
74309;SDS011;62722;51.142;17.052;2023-10-31T01:46:00;6.38;;;3.40;;
74309;SDS011;62722;51.142;17.052;2023-10-31T01:48:29;6.57;;;3.60;;
74309;SDS011;62722;51.142;17.052;2023-10-31T01:50:57;10.23;;;4.10;;
74309;SDS011;62722;51.142;17.052;2023-10-31T01:53:27;8.10;;;4.07;;
74309;SDS011;62722;51.142;17.052;2023-10-31T01:55:58;7.57;;;3.67;;
74309;SDS011;62722;51.142;17.052;2023-10-31T01:58:28;7.25;;;3.70;;
74309;SDS011;62722;51.142;17.052;2023-10-31T02:00:57;6.00;;;3.33;;
74309;SDS011;62722;51.142;17.052;2023-10-31T02:03:26;7.18;;;3.70;;
74309;SDS011;62722;51.142;17.052;2023-10-31T02:05:54;7.22;;;3.75;;
74309;SDS011;62722;51.142;17.052;2023-10-31T02:08:22;8.10;;;3.88;;
74309;SDS011;62722;51.142;17.052;2023-10-31T02:10:49;6.80;;;3.33;;
74309;SDS011;62722;51.142;17.052;2023-10-31T02:13:18;7.13;;;3.50;;
74309;SDS011;62722;51.142;17.052;2023-10-31T02:15:45;4.60;;;3.10;;
74309;SDS011;62722;51.142;17.052;2023-10-31T02:18:12;7.22;;;3.33;;
74309;SDS011;62722;51.142;17.052;2023-10-31T02:20:40;7.28;;;3.58;;
74309;SDS011;62722;51.142;17.052;2023-10-31T02:23:09;6.13;;;3.25;;
74309;SDS011;62722;51.142;17.052;2023-10-31T02:25:36;8.85;;;3.83;;
74309;SDS011;62722;51.142;17.052;2023-10-31T02:28:03;7.93;;;3.40;;
74309;SDS011;62722;51.142;17.052;2023-10-31T02:30:30;7.47;;;3.30;;
74309;SDS011;62722;51.142;17.052;2023-10-31T02:32:57;5.63;;;3.42;;
74309;SDS011;62722;51.142;17.052;2023-10-31T02:35:24;7.78;;;3.70;;
74309;SDS011;62722;51.142;17.052;2023-10-31T02:37:51;5.28;;;3.22;;
74309;SDS011;62722;51.142;17.052;2023-10-31T02:40:20;7.75;;;3.95;;
74309;SDS011;62722;51.142;17.052;2023-10-31T02:42:47;5.35;;;3.15;;
74309;SDS011;62722;51.142;17.052;2023-10-31T02:45:14;5.72;;;2.97;;
74309;SDS011;62722;51.142;17.052;2023-10-31T02:47:41;6.05;;;3.53;;
74309;SDS011;62722;51.142;17.052;2023-10-31T02:50:08;6.80;;;3.85;;
74309;SDS011;62722;51.142;17.052;2023-10-31T02:52:35;7.97;;;4.43;;
74309;SDS011;62722;51.142;17.052;2023-10-31T02:55:03;7.47;;;4.65;;
74309;SDS011;62722;51.142;17.052;2023-10-31T02:57:31;9.30;;;5.28;;
74309;SDS011;62722;51.142;17.052;2023-10-31T02:59:58;7.55;;;5.03;;
74309;SDS011;62722;51.142;17.052;2023-10-31T03:02:25;8.07;;;5.10;;
74309;SDS011;62722;51.142;17.052;2023-10-31T03:04:53;8.45;;;5.07;;
74309;SDS011;62722;51.142;17.052;2023-10-31T03:07:20;8.32;;;5.40;;
74309;SDS011;62722;51.142;17.052;2023-10-31T03:09:47;9.82;;;5.05;;
74309;SDS011;62722;51.142;17.052;2023-10-31T03:12:14;10.30;;;4.85;;
74309;SDS011;62722;51.142;17.052;2023-10-31T03:14:42;6.78;;;4.68;;
74309;SDS011;62722;51.142;17.052;2023-10-31T03:17:09;7.75;;;4.45;;
74309;SDS011;62722;51.142;17.052;2023-10-31T03:19:37;6.75;;;4.28;;
74309;SDS011;62722;51.142;17.052;2023-10-31T03:22:04;6.38;;;3.92;;
74309;SDS011;62722;51.142;17.052;2023-10-31T03:24:32;8.15;;;4.53;;
74309;SDS011;62722;51.142;17.052;2023-10-31T03:26:58;6.40;;;3.80;;
74309;SDS011;62722;51.142;17.052;2023-10-31T03:29:26;5.72;;;3.53;;
74309;SDS011;62722;51.142;17.052;2023-10-31T03:31:54;6.47;;;4.25;;
74309;SDS011;62722;51.142;17.052;2023-10-31T03:34:21;7.43;;;4.03;;
74309;SDS011;62722;51.142;17.052;2023-10-31T03:36:48;8.30;;;3.47;;
74309;SDS011;62722;51.142;17.052;2023-10-31T03:39:16;9.02;;;4.00;;
74309;SDS011;62722;51.142;17.052;2023-10-31T03:41:44;6.32;;;4.20;;
74309;SDS011;62722;51.142;17.052;2023-10-31T03:44:13;9.90;;;5.05;;
74309;SDS011;62722;51.142;17.052;2023-10-31T03:46:39;10.80;;;5.07;;
74309;SDS011;62722;51.142;17.052;2023-10-31T03:49:08;10.85;;;4.70;;
74309;SDS011;62722;51.142;17.052;2023-10-31T03:51:34;7.40;;;3.83;;
74309;SDS011;62722;51.142;17.052;2023-10-31T03:54:02;6.88;;;4.22;;
74309;SDS011;62722;51.142;17.052;2023-10-31T03:56:29;6.82;;;4.05;;
74309;SDS011;62722;51.142;17.052;2023-10-31T03:58:56;6.45;;;4.15;;
74309;SDS011;62722;51.142;17.052;2023-10-31T04:01:23;7.90;;;4.22;;
74309;SDS011;62722;51.142;17.052;2023-10-31T04:03:50;8.52;;;4.68;;
74309;SDS011;62722;51.142;17.052;2023-10-31T04:06:18;8.45;;;4.20;;
74309;SDS011;62722;51.142;17.052;2023-10-31T04:08:46;7.57;;;4.03;;
74309;SDS011;62722;51.142;17.052;2023-10-31T04:11:12;7.43;;;4.47;;
74309;SDS011;62722;51.142;17.052;2023-10-31T04:13:40;7.45;;;4.05;;
74309;SDS011;62722;51.142;17.052;2023-10-31T04:16:07;8.93;;;4.60;;
74309;SDS011;62722;51.142;17.052;2023-10-31T04:18:35;7.53;;;3.83;;
74309;SDS011;62722;51.142;17.052;2023-10-31T04:21:03;9.88;;;4.20;;
74309;SDS011;62722;51.142;17.052;2023-10-31T04:23:31;10.13;;;5.45;;
74309;SDS011;62722;51.142;17.052;2023-10-31T04:25:58;10.07;;;4.80;;
74309;SDS011;62722;51.142;17.052;2023-10-31T04:28:25;7.68;;;3.60;;
74309;SDS011;62722;51.142;17.052;2023-10-31T04:30:52;7.15;;;4.28;;
74309;SDS011;62722;51.142;17.052;2023-10-31T04:33:19;8.68;;;3.95;;
74309;SDS011;62722;51.142;17.052;2023-10-31T04:35:46;6.43;;;3.20;;
74309;SDS011;62722;51.142;17.052;2023-10-31T04:38:14;7.75;;;3.22;;
74309;SDS011;62722;51.142;17.052;2023-10-31T04:40:46;6.90;;;3.05;;
74309;SDS011;62722;51.142;17.052;2023-10-31T04:43:18;5.47;;;3.20;;
74309;SDS011;62722;51.142;17.052;2023-10-31T04:45:49;6.43;;;2.70;;
74309;SDS011;62722;51.142;17.052;2023-10-31T04:48:16;8.20;;;2.63;;
74309;SDS011;62722;51.142;17.052;2023-10-31T04:50:43;4.38;;;2.42;;
74309;SDS011;62722;51.142;17.052;2023-10-31T04:53:11;4.05;;;2.30;;
74309;SDS011;62722;51.142;17.052;2023-10-31T04:55:38;6.30;;;3.30;;
74309;SDS011;62722;51.142;17.052;2023-10-31T04:58:06;7.28;;;2.40;;
74309;SDS011;62722;51.142;17.052;2023-10-31T05:00:33;5.72;;;2.42;;
74309;SDS011;62722;51.142;17.052;2023-10-31T05:03:01;3.78;;;2.47;;
74309;SDS011;62722;51.142;17.052;2023-10-31T05:05:28;4.53;;;2.40;;
74309;SDS011;62722;51.142;17.052;2023-10-31T05:07:55;11.35;;;6.22;;
74309;SDS011;62722;51.142;17.052;2023-10-31T05:10:22;8.90;;;4.70;;
74309;SDS011;62722;51.142;17.052;2023-10-31T05:12:49;6.75;;;3.13;;
74309;SDS011;62722;51.142;17.052;2023-10-31T05:15:18;6.00;;;2.25;;
74309;SDS011;62722;51.142;17.052;2023-10-31T05:17:45;4.40;;;1.98;;
74309;SDS011;62722;51.142;17.052;2023-10-31T05:20:13;4.38;;;3.00;;
74309;SDS011;62722;51.142;17.052;2023-10-31T05:22:40;6.25;;;4.30;;
74309;SDS011;62722;51.142;17.052;2023-10-31T05:25:07;5.70;;;3.75;;
74309;SDS011;62722;51.142;17.052;2023-10-31T05:27:35;8.00;;;3.90;;
74309;SDS011;62722;51.142;17.052;2023-10-31T05:30:02;5.90;;;3.05;;
74309;SDS011;62722;51.142;17.052;2023-10-31T05:32:35;6.93;;;3.10;;
74309;SDS011;62722;51.142;17.052;2023-10-31T05:35:07;6.70;;;3.53;;
74309;SDS011;62722;51.142;17.052;2023-10-31T05:38:10;6.85;;;4.13;;
74309;SDS011;62722;51.142;17.052;2023-10-31T05:40:48;7.38;;;3.40;;
74309;SDS011;62722;51.142;17.052;2023-10-31T05:43:19;11.20;;;5.22;;
74309;SDS011;62722;51.142;17.052;2023-10-31T05:45:47;9.27;;;5.60;;
74309;SDS011;62722;51.142;17.052;2023-10-31T05:48:36;8.70;;;3.83;;
74309;SDS011;62722;51.142;17.052;2023-10-31T05:56:36;5.65;;;2.60;;
74309;SDS011;62722;51.142;17.052;2023-10-31T05:59:41;7.82;;;2.70;;
74309;SDS011;62722;51.142;17.052;2023-10-31T06:02:28;4.40;;;2.35;;
74309;SDS011;62722;51.142;17.052;2023-10-31T06:04:58;6.30;;;2.38;;
74309;SDS011;62722;51.142;17.052;2023-10-31T06:07:44;7.28;;;2.80;;
74309;SDS011;62722;51.142;17.052;2023-10-31T06:10:31;5.18;;;3.00;;
74309;SDS011;62722;51.142;17.052;2023-10-31T06:12:58;6.47;;;2.53;;
74309;SDS011;62722;51.142;17.052;2023-10-31T06:15:27;5.97;;;2.90;;
74309;SDS011;62722;51.142;17.052;2023-10-31T06:17:55;5.50;;;2.67;;
74309;SDS011;62722;51.142;17.052;2023-10-31T06:20:42;4.22;;;2.60;;
74309;SDS011;62722;51.142;17.052;2023-10-31T06:23:10;4.55;;;2.70;;
74309;SDS011;62722;51.142;17.052;2023-10-31T06:25:38;4.32;;;2.88;;
74309;SDS011;62722;51.142;17.052;2023-10-31T06:28:04;5.65;;;3.03;;
74309;SDS011;62722;51.142;17.052;2023-10-31T06:30:32;4.30;;;3.05;;
74309;SDS011;62722;51.142;17.052;2023-10-31T06:32:59;6.28;;;3.10;;
74309;SDS011;62722;51.142;17.052;2023-10-31T06:35:26;7.72;;;3.38;;
74309;SDS011;62722;51.142;17.052;2023-10-31T06:37:55;5.85;;;3.30;;
74309;SDS011;62722;51.142;17.052;2023-10-31T06:40:23;6.35;;;3.05;;
74309;SDS011;62722;51.142;17.052;2023-10-31T06:42:50;6.03;;;3.35;;
74309;SDS011;62722;51.142;17.052;2023-10-31T06:45:18;5.93;;;3.50;;
74309;SDS011;62722;51.142;17.052;2023-10-31T06:47:44;5.70;;;3.63;;
74309;SDS011;62722;51.142;17.052;2023-10-31T06:50:12;6.00;;;3.72;;
74309;SDS011;62722;51.142;17.052;2023-10-31T06:52:39;5.97;;;3.55;;
74309;SDS011;62722;51.142;17.052;2023-10-31T06:55:09;7.53;;;4.10;;
74309;SDS011;62722;51.142;17.052;2023-10-31T06:57:36;6.80;;;3.90;;
74309;SDS011;62722;51.142;17.052;2023-10-31T07:00:04;7.18;;;4.10;;
74309;SDS011;62722;51.142;17.052;2023-10-31T07:02:33;5.85;;;4.03;;
74309;SDS011;62722;51.142;17.052;2023-10-31T07:05:01;8.35;;;4.38;;
74309;SDS011;62722;51.142;17.052;2023-10-31T07:07:29;6.45;;;4.28;;
74309;SDS011;62722;51.142;17.052;2023-10-31T07:09:56;6.15;;;4.03;;
74309;SDS011;62722;51.142;17.052;2023-10-31T07:12:25;6.63;;;4.15;;
74309;SDS011;62722;51.142;17.052;2023-10-31T07:14:52;5.70;;;3.95;;
74309;SDS011;62722;51.142;17.052;2023-10-31T07:17:19;7.95;;;3.83;;
74309;SDS011;62722;51.142;17.052;2023-10-31T07:19:46;7.75;;;4.50;;
74309;SDS011;62722;51.142;17.052;2023-10-31T07:22:13;7.22;;;3.92;;
74309;SDS011;62722;51.142;17.052;2023-10-31T07:24:40;8.65;;;3.60;;
74309;SDS011;62722;51.142;17.052;2023-10-31T07:27:08;7.88;;;3.78;;
74309;SDS011;62722;51.142;17.052;2023-10-31T07:29:40;5.38;;;3.40;;
74309;SDS011;62722;51.142;17.052;2023-10-31T07:32:07;6.07;;;3.72;;
74309;SDS011;62722;51.142;17.052;2023-10-31T07:34:34;22.33;;;9.65;;
74309;SDS011;62722;51.142;17.052;2023-10-31T07:37:01;24.50;;;11.82;;
74309;SDS011;62722;51.142;17.052;2023-10-31T07:39:28;21.27;;;10.10;;
74309;SDS011;62722;51.142;17.052;2023-10-31T07:41:56;12.63;;;6.80;;
74309;SDS011;62722;51.142;17.052;2023-10-31T07:44:23;7.90;;;4.15;;
74309;SDS011;62722;51.142;17.052;2023-10-31T07:46:51;6.43;;;3.70;;
74309;SDS011;62722;51.142;17.052;2023-10-31T07:49:18;5.97;;;3.50;;
74309;SDS011;62722;51.142;17.052;2023-10-31T07:51:45;5.38;;;3.42;;
74309;SDS011;62722;51.142;17.052;2023-10-31T07:54:13;6.10;;;3.35;;
74309;SDS011;62722;51.142;17.052;2023-10-31T07:56:41;5.70;;;2.88;;
74309;SDS011;62722;51.142;17.052;2023-10-31T07:59:09;8.30;;;2.90;;
74309;SDS011;62722;51.142;17.052;2023-10-31T08:01:36;5.55;;;2.40;;
74309;SDS011;62722;51.142;17.052;2023-10-31T08:04:05;3.03;;;1.58;;
74309;SDS011;62722;51.142;17.052;2023-10-31T08:06:32;3.33;;;1.70;;
74309;SDS011;62722;51.142;17.052;2023-10-31T08:09:00;3.00;;;1.40;;
74309;SDS011;62722;51.142;17.052;2023-10-31T08:11:27;4.03;;;1.65;;
74309;SDS011;62722;51.142;17.052;2023-10-31T08:13:54;2.80;;;1.35;;
74309;SDS011;62722;51.142;17.052;2023-10-31T08:16:21;2.90;;;1.73;;
74309;SDS011;62722;51.142;17.052;2023-10-31T08:18:49;4.00;;;1.40;;
74309;SDS011;62722;51.142;17.052;2023-10-31T08:21:17;2.47;;;1.35;;
74309;SDS011;62722;51.142;17.052;2023-10-31T08:23:44;2.35;;;1.30;;
74309;SDS011;62722;51.142;17.052;2023-10-31T08:26:11;3.92;;;1.48;;
74309;SDS011;62722;51.142;17.052;2023-10-31T08:28:39;2.88;;;1.10;;
74309;SDS011;62722;51.142;17.052;2023-10-31T08:31:06;2.08;;;1.20;;
74309;SDS011;62722;51.142;17.052;2023-10-31T08:33:33;2.80;;;1.35;;
74309;SDS011;62722;51.142;17.052;2023-10-31T08:36:00;2.28;;;1.13;;
74309;SDS011;62722;51.142;17.052;2023-10-31T08:38:29;2.00;;;1.10;;
74309;SDS011;62722;51.142;17.052;2023-10-31T08:40:56;2.60;;;1.30;;
74309;SDS011;62722;51.142;17.052;2023-10-31T08:43:23;3.17;;;1.50;;
74309;SDS011;62722;51.142;17.052;2023-10-31T08:45:50;3.00;;;1.20;;
74309;SDS011;62722;51.142;17.052;2023-10-31T08:48:18;2.83;;;1.35;;
74309;SDS011;62722;51.142;17.052;2023-10-31T08:50:45;2.05;;;1.15;;
74309;SDS011;62722;51.142;17.052;2023-10-31T08:53:12;2.08;;;1.08;;
74309;SDS011;62722;51.142;17.052;2023-10-31T08:55:40;2.67;;;0.90;;
74309;SDS011;62722;51.142;17.052;2023-10-31T08:58:09;2.22;;;1.00;;
74309;SDS011;62722;51.142;17.052;2023-10-31T09:00:36;2.63;;;0.90;;
74309;SDS011;62722;51.142;17.052;2023-10-31T09:03:03;2.40;;;1.20;;
74309;SDS011;62722;51.142;17.052;2023-10-31T09:05:30;3.10;;;1.30;;
74309;SDS011;62722;51.142;17.052;2023-10-31T09:07:57;2.40;;;1.00;;
74309;SDS011;62722;51.142;17.052;2023-10-31T09:10:24;2.13;;;1.10;;
74309;SDS011;62722;51.142;17.052;2023-10-31T09:12:53;1.70;;;0.90;;
74309;SDS011;62722;51.142;17.052;2023-10-31T09:15:20;2.50;;;1.15;;
74309;SDS011;62722;51.142;17.052;2023-10-31T09:17:48;2.03;;;1.13;;
74309;SDS011;62722;51.142;17.052;2023-10-31T09:20:15;2.33;;;1.10;;
74309;SDS011;62722;51.142;17.052;2023-10-31T09:22:42;2.70;;;1.10;;
74309;SDS011;62722;51.142;17.052;2023-10-31T09:25:09;1.60;;;0.80;;
74309;SDS011;62722;51.142;17.052;2023-10-31T09:27:37;1.75;;;1.00;;
74309;SDS011;62722;51.142;17.052;2023-10-31T09:30:06;1.63;;;0.93;;
74309;SDS011;62722;51.142;17.052;2023-10-31T09:32:33;1.60;;;0.90;;
74309;SDS011;62722;51.142;17.052;2023-10-31T09:35:00;1.92;;;0.90;;
74309;SDS011;62722;51.142;17.052;2023-10-31T09:37:27;1.83;;;1.10;;
74309;SDS011;62722;51.142;17.052;2023-10-31T09:39:54;2.00;;;0.80;;
74309;SDS011;62722;51.142;17.052;2023-10-31T09:42:21;2.83;;;0.95;;
74309;SDS011;62722;51.142;17.052;2023-10-31T09:44:48;2.53;;;1.10;;
74309;SDS011;62722;51.142;17.052;2023-10-31T09:47:17;1.95;;;1.00;;
74309;SDS011;62722;51.142;17.052;2023-10-31T09:49:46;2.30;;;0.93;;
74309;SDS011;62722;51.142;17.052;2023-10-31T09:52:13;2.10;;;1.10;;
74309;SDS011;62722;51.142;17.052;2023-10-31T09:54:40;1.80;;;0.95;;
74309;SDS011;62722;51.142;17.052;2023-10-31T09:57:08;2.53;;;1.13;;
74309;SDS011;62722;51.142;17.052;2023-10-31T09:59:36;2.83;;;0.90;;
74309;SDS011;62722;51.142;17.052;2023-10-31T10:02:03;1.70;;;0.90;;
74309;SDS011;62722;51.142;17.052;2023-10-31T10:04:32;1.80;;;0.80;;
74309;SDS011;62722;51.142;17.052;2023-10-31T10:07:00;2.13;;;1.05;;
74309;SDS011;62722;51.142;17.052;2023-10-31T10:09:27;1.70;;;0.90;;
74309;SDS011;62722;51.142;17.052;2023-10-31T10:11:54;1.67;;;0.93;;
74309;SDS011;62722;51.142;17.052;2023-10-31T10:14:22;3.55;;;1.10;;
74309;SDS011;62722;51.142;17.052;2023-10-31T10:16:50;4.15;;;1.23;;
74309;SDS011;62722;51.142;17.052;2023-10-31T10:19:17;2.50;;;1.10;;
74309;SDS011;62722;51.142;17.052;2023-10-31T10:21:50;1.55;;;0.90;;
74309;SDS011;62722;51.142;17.052;2023-10-31T10:24:18;2.00;;;1.08;;
74309;SDS011;62722;51.142;17.052;2023-10-31T10:26:45;2.10;;;1.10;;
74309;SDS011;62722;51.142;17.052;2023-10-31T10:29:12;2.42;;;0.85;;
74309;SDS011;62722;51.142;17.052;2023-10-31T10:31:39;2.22;;;1.25;;
74309;SDS011;62722;51.142;17.052;2023-10-31T10:34:07;2.28;;;0.80;;
74309;SDS011;62722;51.142;17.052;2023-10-31T10:36:35;2.08;;;0.90;;
74309;SDS011;62722;51.142;17.052;2023-10-31T10:39:03;1.33;;;0.68;;
74309;SDS011;62722;51.142;17.052;2023-10-31T10:41:30;2.15;;;0.73;;
74309;SDS011;62722;51.142;17.052;2023-10-31T10:44:03;1.95;;;0.70;;
74309;SDS011;62722;51.142;17.052;2023-10-31T10:46:31;1.55;;;0.70;;
74309;SDS011;62722;51.142;17.052;2023-10-31T10:48:59;25.90;;;23.30;;
74309;SDS011;62722;51.142;17.052;2023-10-31T10:51:28;2.53;;;1.25;;
74309;SDS011;62722;51.142;17.052;2023-10-31T10:53:57;2.00;;;0.90;;
74309;SDS011;62722;51.142;17.052;2023-10-31T10:56:28;1.85;;;0.95;;
74309;SDS011;62722;51.142;17.052;2023-10-31T10:59:01;1.90;;;0.90;;
74309;SDS011;62722;51.142;17.052;2023-10-31T11:01:30;2.17;;;1.00;;
74309;SDS011;62722;51.142;17.052;2023-10-31T11:03:57;2.33;;;0.88;;
74309;SDS011;62722;51.142;17.052;2023-10-31T11:06:25;2.00;;;0.90;;
74309;SDS011;62722;51.142;17.052;2023-10-31T11:08:53;2.38;;;1.10;;
74309;SDS011;62722;51.142;17.052;2023-10-31T11:11:20;1.77;;;0.90;;
74309;SDS011;62722;51.142;17.052;2023-10-31T11:13:50;1.70;;;0.80;;
74309;SDS011;62722;51.142;17.052;2023-10-31T11:16:19;1.50;;;0.80;;
74309;SDS011;62722;51.142;17.052;2023-10-31T11:18:46;1.63;;;0.80;;
74309;SDS011;62722;51.142;17.052;2023-10-31T11:21:13;1.30;;;0.65;;
74309;SDS011;62722;51.142;17.052;2023-10-31T11:23:41;2.63;;;0.80;;
74309;SDS011;62722;51.142;17.052;2023-10-31T11:26:08;1.45;;;0.68;;
74309;SDS011;62722;51.142;17.052;2023-10-31T11:28:35;2.72;;;0.80;;
74309;SDS011;62722;51.142;17.052;2023-10-31T11:31:04;2.13;;;0.70;;
74309;SDS011;62722;51.142;17.052;2023-10-31T11:33:33;1.70;;;0.80;;
74309;SDS011;62722;51.142;17.052;2023-10-31T11:36:00;1.10;;;0.60;;
74309;SDS011;62722;51.142;17.052;2023-10-31T11:38:30;2.20;;;0.90;;
74309;SDS011;62722;51.142;17.052;2023-10-31T11:43:27;1.17;;;0.57;;
74309;SDS011;62722;51.142;17.052;2023-10-31T11:46:02;1.15;;;0.70;;
74309;SDS011;62722;51.142;17.052;2023-10-31T11:51:12;1.85;;;0.82;;
74309;SDS011;62722;51.142;17.052;2023-10-31T11:53:39;1.88;;;0.80;;
74309;SDS011;62722;51.142;17.052;2023-10-31T11:56:07;1.73;;;0.80;;
74309;SDS011;62722;51.142;17.052;2023-10-31T11:58:36;1.95;;;0.77;;
74309;SDS011;62722;51.142;17.052;2023-10-31T12:01:03;1.73;;;0.82;;
74309;SDS011;62722;51.142;17.052;2023-10-31T12:03:36;1.40;;;0.70;;
74309;SDS011;62722;51.142;17.052;2023-10-31T12:06:04;2.17;;;0.80;;
74309;SDS011;62722;51.142;17.052;2023-10-31T12:08:33;1.50;;;0.70;;
74309;SDS011;62722;51.142;17.052;2023-10-31T12:11:06;1.70;;;0.85;;
74309;SDS011;62722;51.142;17.052;2023-10-31T12:13:34;2.28;;;0.90;;
74309;SDS011;62722;51.142;17.052;2023-10-31T12:16:01;3.30;;;0.80;;
74309;SDS011;62722;51.142;17.052;2023-10-31T12:18:28;1.33;;;0.70;;
74309;SDS011;62722;51.142;17.052;2023-10-31T12:20:55;1.88;;;0.85;;
74309;SDS011;62722;51.142;17.052;2023-10-31T12:23:22;1.25;;;0.95;;
74309;SDS011;62722;51.142;17.052;2023-10-31T12:25:51;2.15;;;0.63;;
74309;SDS011;62722;51.142;17.052;2023-10-31T12:28:18;1.30;;;0.55;;
74309;SDS011;62722;51.142;17.052;2023-10-31T12:30:46;2.00;;;0.70;;
74309;SDS011;62722;51.142;17.052;2023-10-31T12:33:13;1.40;;;0.60;;
74309;SDS011;62722;51.142;17.052;2023-10-31T12:35:41;1.50;;;0.60;;
74309;SDS011;62722;51.142;17.052;2023-10-31T12:38:09;2.33;;;0.70;;
74309;SDS011;62722;51.142;17.052;2023-10-31T12:40:37;1.38;;;0.63;;
74309;SDS011;62722;51.142;17.052;2023-10-31T12:43:05;2.22;;;0.85;;
74309;SDS011;62722;51.142;17.052;2023-10-31T12:45:32;1.50;;;0.60;;
74309;SDS011;62722;51.142;17.052;2023-10-31T12:48:00;2.22;;;0.55;;
74309;SDS011;62722;51.142;17.052;2023-10-31T12:50:27;2.38;;;0.70;;
74309;SDS011;62722;51.142;17.052;2023-10-31T12:52:54;1.50;;;0.80;;
74309;SDS011;62722;51.142;17.052;2023-10-31T12:55:23;2.33;;;0.70;;
74309;SDS011;62722;51.142;17.052;2023-10-31T12:57:51;1.70;;;0.80;;
74309;SDS011;62722;51.142;17.052;2023-10-31T13:00:20;2.88;;;0.60;;
74309;SDS011;62722;51.142;17.052;2023-10-31T13:02:50;1.48;;;0.60;;
74309;SDS011;62722;51.142;17.052;2023-10-31T13:05:17;1.63;;;0.70;;
74309;SDS011;62722;51.142;17.052;2023-10-31T13:07:47;2.58;;;0.85;;
74309;SDS011;62722;51.142;17.052;2023-10-31T13:10:15;2.00;;;0.60;;
74309;SDS011;62722;51.142;17.052;2023-10-31T13:12:43;3.05;;;0.65;;
74309;SDS011;62722;51.142;17.052;2023-10-31T13:15:10;1.23;;;0.70;;
74309;SDS011;62722;51.142;17.052;2023-10-31T13:17:38;1.70;;;0.60;;
74309;SDS011;62722;51.142;17.052;2023-10-31T13:20:07;1.65;;;0.70;;
74309;SDS011;62722;51.142;17.052;2023-10-31T13:22:35;1.92;;;0.70;;
74309;SDS011;62722;51.142;17.052;2023-10-31T13:25:02;1.33;;;0.80;;
74309;SDS011;62722;51.142;17.052;2023-10-31T13:27:30;1.70;;;0.70;;
74309;SDS011;62722;51.142;17.052;2023-10-31T13:29:57;1.67;;;0.70;;
74309;SDS011;62722;51.142;17.052;2023-10-31T13:32:24;1.70;;;0.65;;
74309;SDS011;62722;51.142;17.052;2023-10-31T13:34:53;2.45;;;0.63;;
74309;SDS011;62722;51.142;17.052;2023-10-31T13:37:19;2.35;;;0.80;;
74309;SDS011;62722;51.142;17.052;2023-10-31T13:39:47;1.60;;;0.65;;
74309;SDS011;62722;51.142;17.052;2023-10-31T13:42:14;3.10;;;1.10;;
74309;SDS011;62722;51.142;17.052;2023-10-31T13:44:41;3.10;;;0.90;;
74309;SDS011;62722;51.142;17.052;2023-10-31T13:47:08;1.45;;;0.60;;
74309;SDS011;62722;51.142;17.052;2023-10-31T13:49:36;1.35;;;0.70;;
74309;SDS011;62722;51.142;17.052;2023-10-31T13:52:04;1.52;;;0.70;;
74309;SDS011;62722;51.142;17.052;2023-10-31T13:54:32;1.95;;;0.80;;
74309;SDS011;62722;51.142;17.052;2023-10-31T13:56:59;1.98;;;0.85;;
74309;SDS011;62722;51.142;17.052;2023-10-31T13:59:26;5.28;;;0.90;;
74309;SDS011;62722;51.142;17.052;2023-10-31T14:01:53;1.80;;;0.82;;
74309;SDS011;62722;51.142;17.052;2023-10-31T14:04:20;3.50;;;0.88;;
